Time;durP1;ratioP1;P1;durP2;ratioP2;P2;SDS_P1;SDS_P2;PMS_P1;PMS_P2;Temp;Humidity;BMP_temperature;BMP_pressure;BME280_temperature;BME280_humidity;BME280_pressure;Samples;Min_cycle;Max_cycle;Signal;HPM_P1;HPM_P2
2022/08/31 00:04:51;;;;;;;1.20;0.95;;;23.70;99.90;;;;;;10544360;28;20197;-82
2022/08/31 00:09:54;;;;;;;1.55;0.90;;;23.70;99.90;;;;;;10548148;28;20542;-83
2022/08/31 00:14:56;;;;;;;1.63;1.00;;;23.70;99.90;;;;;;10564222;28;20193;-82
2022/08/31 00:19:59;;;;;;;0.90;0.80;;;23.80;99.90;;;;;;10567439;27;20213;-82
2022/08/31 00:25:02;;;;;;;1.90;1.05;;;23.80;99.90;;;;;;10592275;28;20245;-82
2022/08/31 00:30:07;;;;;;;1.10;0.70;;;23.80;99.90;;;;;;10570089;27;20243;-84
2022/08/31 00:35:11;;;;;;;0.70;0.70;;;23.80;99.90;;;;;;10569344;28;20236;-83
2022/08/31 00:40:13;;;;;;;1.58;0.95;;;23.80;99.90;;;;;;10561585;28;20213;-83
2022/08/31 00:45:16;;;;;;;1.17;1.08;;;23.90;99.90;;;;;;10565201;28;20210;-82
2022/08/31 00:50:22;;;;;;;1.40;1.10;;;23.80;99.90;;;;;;10547907;28;20263;-83
2022/08/31 00:55:34;;;;;;;0.88;0.70;;;23.80;99.90;;;;;;10549882;28;20210;-82
2022/08/31 01:00:39;;;;;;;1.30;1.00;;;23.90;99.90;;;;;;10549538;28;20219;-82
2022/08/31 01:05:41;;;;;;;0.70;0.70;;;23.80;99.90;;;;;;10557207;28;20225;-82
2022/08/31 01:10:44;;;;;;;1.10;1.00;;;23.80;99.90;;;;;;10572426;28;20206;-83
2022/08/31 01:15:53;;;;;;;1.17;1.08;;;23.90;99.90;;;;;;10584224;28;20209;-82
2022/08/31 01:21:06;;;;;;;0.73;0.60;;;23.90;99.90;;;;;;10590176;27;20627;-83
2022/08/31 01:26:13;;;;;;;1.42;0.95;;;23.90;99.90;;;;;;10590124;28;20571;-82
2022/08/31 01:31:24;;;;;;;1.73;0.90;;;23.90;99.90;;;;;;10587560;28;20549;-82
2022/08/31 01:36:30;;;;;;;1.00;0.90;;;23.90;99.90;;;;;;10585821;27;20301;-83
2022/08/31 01:41:33;;;;;;;0.85;0.77;;;23.90;99.90;;;;;;10545044;28;20612;-84
2022/08/31 01:46:36;;;;;;;1.55;0.70;;;23.90;99.90;;;;;;10558475;28;20305;-84
2022/08/31 01:51:39;;;;;;;1.10;1.00;;;23.90;99.90;;;;;;10579321;28;20201;-84
2022/08/31 01:56:45;;;;;;;0.77;0.70;;;24.00;99.90;;;;;;10560552;28;20281;-84
2022/08/31 02:01:55;;;;;;;1.00;0.85;;;24.00;99.90;;;;;;10551763;28;20258;-84
2022/08/31 02:07:00;;;;;;;1.48;0.82;;;24.00;99.90;;;;;;10585802;27;20220;-84
2022/08/31 02:12:03;;;;;;;0.95;0.80;;;23.90;99.90;;;;;;10565468;28;20201;-83
2022/08/31 02:17:08;;;;;;;0.95;0.85;;;23.90;99.90;;;;;;10535780;28;20259;-84
2022/08/31 02:22:11;;;;;;;1.63;0.90;;;24.00;99.90;;;;;;10524370;28;20583;-84
2022/08/31 02:27:13;;;;;;;1.15;0.80;;;23.90;99.90;;;;;;10535401;28;20225;-83
2022/08/31 02:32:16;;;;;;;0.98;0.88;;;24.00;99.90;;;;;;10553895;28;20189;-85
2022/08/31 02:37:23;;;;;;;0.80;0.80;;;24.00;99.90;;;;;;10545516;28;20463;-84
2022/08/31 02:42:25;;;;;;;1.00;0.90;;;23.80;99.90;;;;;;10536595;28;20545;-84
2022/08/31 02:47:48;;;;;;;1.58;1.02;;;23.60;99.90;;;;;;10543842;28;20283;-85
2022/08/31 02:53:01;;;;;;;1.15;1.05;;;23.40;99.90;;;;;;10534027;28;20250;-85
2022/08/31 02:58:04;;;;;;;1.05;0.88;;;23.30;99.90;;;;;;10535254;28;20266;-84
2022/08/31 03:03:08;;;;;;;1.85;0.63;;;23.20;99.90;;;;;;10540069;28;20190;-84
2022/08/31 03:08:12;;;;;;;1.00;0.90;;;23.20;99.90;;;;;;10517283;28;20271;-84
2022/08/31 03:13:16;;;;;;;1.08;0.98;;;23.10;99.90;;;;;;10551532;27;20204;-84
2022/08/31 03:18:19;;;;;;;0.85;0.68;;;23.10;99.90;;;;;;10595750;27;20198;-84
2022/08/31 03:23:21;;;;;;;0.90;0.70;;;23.10;99.90;;;;;;10530849;28;20263;-84
2022/08/31 03:28:24;;;;;;;0.60;0.60;;;23.00;99.90;;;;;;10534595;28;20627;-84
2022/08/31 03:33:48;;;;;;;1.08;0.93;;;23.00;99.90;;;;;;10561673;28;20232;-83
2022/08/31 03:38:51;;;;;;;1.33;0.80;;;22.90;99.90;;;;;;10536382;28;20266;-83
2022/08/31 03:43:54;;;;;;;2.53;0.68;;;22.90;99.90;;;;;;10533266;28;20237;-84
2022/08/31 03:48:57;;;;;;;1.75;0.75;;;22.90;99.90;;;;;;10556120;28;20314;-84
2022/08/31 03:54:00;;;;;;;1.17;0.95;;;22.90;99.90;;;;;;10563995;27;20594;-84
2022/08/31 03:59:03;;;;;;;1.10;0.70;;;22.80;99.90;;;;;;10577821;27;20262;-84
2022/08/31 04:04:38;;;;;;;0.80;0.70;;;22.80;99.90;;;;;;10558481;28;20259;-83
2022/08/31 04:10:00;;;;;;;1.10;0.98;;;22.80;99.90;;;;;;10551234;28;20221;-84
2022/08/31 04:15:28;;;;;;;1.48;0.80;;;22.80;99.90;;;;;;10572073;28;20233;-84
2022/08/31 04:21:04;;;;;;;1.42;1.20;;;22.80;99.90;;;;;;10510921;28;20771;-83
2022/08/31 04:26:18;;;;;;;1.75;0.80;;;22.70;99.90;;;;;;10510437;28;20245;-84
2022/08/31 04:31:22;;;;;;;0.90;0.75;;;22.80;99.90;;;;;;10490221;28;20225;-84
2022/08/31 04:36:27;;;;;;;1.30;0.88;;;22.80;99.90;;;;;;10399274;23;20305;-84
2022/08/31 04:41:32;;;;;;;1.23;1.02;;;22.80;99.90;;;;;;10386031;28;20305;-83
2022/08/31 04:46:36;;;;;;;0.43;0.43;;;22.80;99.90;;;;;;10388204;28;20247;-83
2022/08/31 04:51:41;;;;;;;1.15;0.98;;;22.70;99.90;;;;;;10391726;28;20642;-83
2022/08/31 04:56:44;;;;;;;1.92;0.77;;;22.80;99.90;;;;;;10390103;22;20264;-86
2022/08/31 05:01:59;;;;;;;0.85;0.80;;;22.80;99.90;;;;;;10365596;28;20220;-86
2022/08/31 05:07:14;;;;;;;1.25;0.77;;;22.70;99.90;;;;;;10371142;28;20247;-86
2022/08/31 05:12:18;;;;;;;2.20;0.73;;;22.70;99.90;;;;;;10371803;28;20235;-85
2022/08/31 05:17:21;;;;;;;1.27;0.95;;;22.80;99.90;;;;;;10372585;28;20232;-85
2022/08/31 05:22:23;;;;;;;1.30;0.90;;;22.90;99.90;;;;;;10372198;28;20244;-85
2022/08/31 05:27:28;;;;;;;0.73;0.60;;;22.80;99.90;;;;;;10370791;28;20263;-86
2022/08/31 05:32:30;;;;;;;1.10;0.75;;;22.90;99.90;;;;;;10352453;28;20344;-85
2022/08/31 05:37:36;;;;;;;0.80;0.75;;;22.90;99.90;;;;;;10371191;28;20208;-85
2022/08/31 05:42:38;;;;;;;1.10;0.82;;;22.90;99.90;;;;;;10371504;28;20239;-85
2022/08/31 05:47:42;;;;;;;2.92;0.93;;;22.90;99.90;;;;;;10370378;28;20263;-85
2022/08/31 05:52:44;;;;;;;1.25;1.05;;;17.40;99.90;;;;;;10371377;28;20244;-85
2022/08/31 05:57:47;;;;;;;1.77;1.00;;;21.20;99.90;;;;;;10354668;28;20286;-85
2022/08/31 06:02:50;;;;;;;0.88;0.68;;;22.10;99.90;;;;;;10367801;28;20252;-85
2022/08/31 06:07:55;;;;;;;2.33;0.98;;;22.50;99.90;;;;;;10369091;28;20333;-90
2022/08/31 06:13:00;;;;;;;3.83;1.20;;;20.60;99.90;;;;;;10370820;28;20240;-91
2022/08/31 06:18:03;;;;;;;2.40;1.30;;;21.80;99.90;;;;;;10372226;28;20235;-90
2022/08/31 06:23:08;;;;;;;7.28;1.50;;;22.10;99.90;;;;;;10370769;28;20220;-90
2022/08/31 06:28:21;;;;;;;2.53;0.90;;;22.30;99.90;;;;;;10370576;28;20220;-91
2022/08/31 06:33:24;;;;;;;2.97;0.70;;;22.30;99.90;;;;;;10370409;28;20282;-92
2022/08/31 06:38:46;;;;;;;3.25;0.98;;;22.50;99.90;;;;;;10369809;28;20370;-91
2022/08/31 06:44:23;;;;;;;2.85;0.73;;;22.60;99.90;;;;;;10366062;28;20263;-91
2022/08/31 06:49:42;;;;;;;0.70;0.68;;;22.60;99.90;;;;;;10388146;28;20310;-91
2022/08/31 06:54:45;;;;;;;2.63;1.13;;;22.80;99.90;;;;;;10389262;28;20292;-91
2022/08/31 07:00:07;;;;;;;2.35;0.80;;;22.80;99.90;;;;;;10407384;28;20231;-91
2022/08/31 07:05:23;;;;;;;3.30;1.10;;;22.90;99.90;;;;;;10389463;28;20290;-90
2022/08/31 07:10:27;;;;;;;2.40;0.85;;;22.70;99.90;;;;;;10406991;28;20370;-92
2022/08/31 07:15:30;;;;;;;2.42;1.20;;;23.00;99.90;;;;;;10413423;28;20263;-91
2022/08/31 07:20:33;;;;;;;1.33;0.80;;;23.10;99.90;;;;;;10312600;28;20283;-90
2022/08/31 07:25:38;;;;;;;3.83;1.42;;;23.20;99.90;;;;;;10345021;28;20267;-91
2022/08/31 07:30:40;;;;;;;1.88;0.93;;;23.10;99.90;;;;;;10349910;28;20255;-91
2022/08/31 07:35:45;;;;;;;1.75;0.93;;;23.30;99.90;;;;;;10352491;28;20239;-90
2022/08/31 07:46:22;;;;;;;3.22;0.90;;;23.50;99.90;;;;;;10368515;28;20270;-91
2022/08/31 07:51:26;;;;;;;3.10;0.82;;;23.20;99.90;;;;;;10367718;28;20255;-91
2022/08/31 07:56:55;;;;;;;1.27;0.68;;;23.20;99.90;;;;;;10355116;28;20919;-91
2022/08/31 08:02:00;;;;;;;0.95;0.70;;;23.30;99.90;;;;;;10367974;28;20208;-90
2022/08/31 08:07:04;;;;;;;3.58;0.85;;;23.10;99.90;;;;;;10357379;28;20244;-92
2022/08/31 08:12:26;;;;;;;2.17;0.70;;;23.20;99.90;;;;;;10369824;28;20677;-90
2022/08/31 08:17:41;;;;;;;3.78;0.85;;;23.40;99.90;;;;;;10367963;28;20216;-91
2022/08/31 08:22:47;;;;;;;0.85;0.70;;;23.50;99.90;;;;;;10375003;28;20239;-91
2022/08/31 08:28:06;;;;;;;1.50;0.60;;;23.60;99.90;;;;;;10379534;28;20224;-91
2022/08/31 08:33:32;;;;;;;1.50;0.80;;;23.40;99.90;;;;;;10397666;28;20208;-90
2022/08/31 08:38:38;;;;;;;4.57;1.60;;;23.30;99.90;;;;;;10361265;28;20209;-92
2022/08/31 08:43:45;;;;;;;0.95;0.32;;;23.10;99.90;;;;;;10378727;28;20732;-91
2022/08/31 08:48:58;;;;;;;2.40;0.60;;;22.90;99.90;;;;;;10374650;28;20302;-92
2022/08/31 08:54:09;;;;;;;0.95;0.70;;;23.10;99.90;;;;;;10373944;28;20633;-91
2022/08/31 08:59:15;;;;;;;1.00;0.73;;;23.10;99.90;;;;;;10375925;28;20660;-91
2022/08/31 09:04:51;;;;;;;0.82;0.77;;;23.00;99.90;;;;;;10375928;28;20701;-92
2022/08/31 09:10:28;;;;;;;1.17;0.73;;;23.40;99.90;;;;;;10372978;28;20314;-91
2022/08/31 09:15:48;;;;;;;1.17;0.70;;;23.30;99.90;;;;;;10373574;28;20236;-89
2022/08/31 09:21:45;;;;;;;0.95;0.70;;;23.60;99.90;;;;;;10373296;28;20212;-92
2022/08/31 09:27:18;;;;;;;0.80;0.50;;;23.40;99.90;;;;;;10355316;28;20205;-91
2022/08/31 09:32:30;;;;;;;1.38;0.80;;;23.40;99.90;;;;;;10373086;28;20238;-91
2022/08/31 09:37:39;;;;;;;1.70;0.80;;;23.70;99.90;;;;;;10373351;28;20208;-92
2022/08/31 09:42:44;;;;;;;1.10;0.70;;;23.70;99.90;;;;;;10372986;28;20585;-92
2022/08/31 09:47:51;;;;;;;1.05;0.70;;;23.80;99.90;;;;;;10373381;28;20294;-91
2022/08/31 09:58:29;;;;;;;1.50;0.75;;;23.90;99.90;;;;;;10372517;28;20374;-91
2022/08/31 10:03:37;;;;;;;2.22;0.47;;;23.90;99.90;;;;;;10372257;28;20250;-91
2022/08/31 10:08:56;;;;;;;1.48;0.98;;;23.80;99.90;;;;;;10371543;28;20256;-91
2022/08/31 10:14:15;;;;;;;1.85;0.90;;;23.60;99.90;;;;;;10370766;28;20204;-92
2022/08/31 10:19:29;;;;;;;1.13;0.73;;;23.60;99.90;;;;;;10346814;28;20259;-91
2022/08/31 10:24:45;;;;;;;0.80;0.70;;;23.80;99.90;;;;;;10347125;28;20270;-93
2022/08/31 10:30:01;;;;;;;0.65;0.55;;;24.20;99.90;;;;;;10353356;28;20389;-92
2022/08/31 10:35:19;;;;;;;0.80;0.60;;;23.80;99.90;;;;;;10370976;28;20208;-92
2022/08/31 10:40:33;;;;;;;0.70;0.60;;;24.00;99.90;;;;;;10370447;28;20232;-92
2022/08/31 10:45:42;;;;;;;0.60;0.47;;;23.80;99.90;;;;;;10371625;28;20258;-91
2022/08/31 10:50:54;;;;;;;1.92;0.55;;;24.00;99.90;;;;;;10369800;28;20267;-92
2022/08/31 10:56:16;;;;;;;0.70;0.38;;;24.00;81.20;;;;;;10370154;28;20302;-91
2022/08/31 11:01:39;;;;;;;1.98;0.77;;;22.40;92.20;;;;;;10369767;28;20240;-91
2022/08/31 11:06:56;;;;;;;1.52;0.68;;;21.60;99.90;;;;;;10369591;28;20204;-92
2022/08/31 11:12:09;;;;;;;6.53;0.50;;;21.00;99.90;;;;;;10352566;28;20309;-91
2022/08/31 11:17:30;;;;;;;2.05;0.73;;;20.70;99.90;;;;;;10369070;28;20196;-91
2022/08/31 11:23:07;;;;;;;0.73;0.50;;;20.90;99.90;;;;;;10369229;28;20232;-91
2022/08/31 11:28:17;;;;;;;0.77;0.47;;;21.10;99.80;;;;;;10370404;28;20252;-91
2022/08/31 11:33:26;;;;;;;0.90;0.38;;;21.30;99.90;;;;;;10327981;28;20545;-91
2022/08/31 11:38:46;;;;;;;1.50;0.57;;;20.70;99.90;;;;;;10329429;28;20213;-91
2022/08/31 11:43:51;;;;;;;3.70;0.52;;;21.00;99.90;;;;;;10311999;28;20307;-91
2022/08/31 11:48:53;;;;;;;0.88;0.50;;;20.40;99.50;;;;;;10368581;28;20299;-91
2022/08/31 11:53:56;;;;;;;1.10;0.43;;;20.70;99.90;;;;;;10368117;28;20224;-91
2022/08/31 11:59:17;;;;;;;1.48;0.50;;;20.50;99.90;;;;;;10367445;28;20204;-90
2022/08/31 12:04:40;;;;;;;3.10;0.20;;;20.80;98.20;;;;;;10367876;28;20679;-90
2022/08/31 12:09:58;;;;;;;0.73;0.38;;;20.70;98.90;;;;;;10351785;28;20251;-92
2022/08/31 12:15:07;;;;;;;4.10;0.73;;;20.50;97.80;;;;;;10327764;28;20200;-92
2022/08/31 12:20:27;;;;;;;2.40;0.40;;;21.60;99.90;;;;;;10327735;28;20209;-92
2022/08/31 12:25:42;;;;;;;4.35;0.85;;;22.30;99.90;;;;;;10333581;28;20255;-92
2022/08/31 12:30:53;;;;;;;0.60;0.30;;;22.90;96.30;;;;;;10367974;28;20267;-90
2022/08/31 12:36:18;;;;;;;1.33;0.60;;;21.80;98.00;;;;;;10369035;28;20239;-92
2022/08/31 12:41:20;;;;;;;1.23;0.57;;;22.40;99.90;;;;;;10368278;28;20200;-91
2022/08/31 12:46:46;;;;;;;1.30;0.60;;;23.20;99.90;;;;;;10333809;28;20208;-93
2022/08/31 12:52:30;;;;;;;1.30;0.63;;;23.60;99.90;;;;;;10331564;28;20229;-92
2022/08/31 12:57:48;;;;;;;0.68;0.43;;;23.70;99.90;;;;;;10324055;28;20384;-91
2022/08/31 13:02:56;;;;;;;3.13;0.60;;;23.40;97.30;;;;;;10308489;28;20731;-91
2022/08/31 13:08:00;;;;;;;1.58;1.08;;;23.40;99.90;;;;;;9951021;28;10000659;-91
2022/08/31 13:13:08;;;;;;;0.82;0.50;;;23.40;99.90;;;;;;10323783;28;20256;-92
2022/08/31 13:18:20;;;;;;;1.75;0.68;;;23.60;99.90;;;;;;10328304;28;20248;-91
2022/08/31 13:23:29;;;;;;;0.60;0.40;;;22.90;99.90;;;;;;10310564;28;20287;-90
2022/08/31 13:28:33;;;;;;;5.30;0.70;;;23.30;99.90;;;;;;10316751;28;20263;-91
2022/08/31 13:33:41;;;;;;;1.50;0.68;;;23.40;99.90;;;;;;10369712;28;20722;-91
2022/08/31 13:38:52;;;;;;;0.90;0.63;;;23.00;99.90;;;;;;10369007;28;20235;-90
2022/08/31 13:44:00;;;;;;;0.98;0.73;;;23.40;99.90;;;;;;10368943;28;20302;-91
2022/08/31 13:49:07;;;;;;;1.30;0.50;;;23.30;99.90;;;;;;10371437;28;20251;-91
2022/08/31 13:54:13;;;;;;;1.05;0.70;;;23.40;99.90;;;;;;10369540;28;20228;-91
2022/08/31 13:59:27;;;;;;;2.08;0.55;;;23.40;99.90;;;;;;10370253;28;20232;-91
2022/08/31 14:04:37;;;;;;;0.88;0.70;;;23.30;99.90;;;;;;10326829;28;20244;-91
2022/08/31 14:09:46;;;;;;;1.38;0.40;;;23.10;99.90;;;;;;10288204;28;20655;-91
2022/08/31 14:14:49;;;;;;;0.82;0.40;;;22.90;90.50;;;;;;10327715;28;20639;-91
2022/08/31 14:19:51;;;;;;;2.88;0.77;;;22.80;97.30;;;;;;10328114;28;20240;-91
2022/08/31 14:24:54;;;;;;;0.52;0.30;;;23.20;98.70;;;;;;10305450;28;20233;-93
2022/08/31 14:29:57;;;;;;;1.77;0.65;;;23.40;95.80;;;;;;10271024;28;20296;-90
2022/08/31 14:35:01;;;;;;;1.00;0.60;;;23.60;86.80;;;;;;10288408;28;20260;-92
2022/08/31 14:40:04;;;;;;;0.80;0.60;;;23.70;99.90;;;;;;10317252;28;20300;-92
2022/08/31 14:45:19;;;;;;;0.80;0.52;;;23.80;99.90;;;;;;10361845;28;20205;-91
2022/08/31 14:50:25;;;;;;;2.00;0.73;;;23.80;99.90;;;;;;10335337;28;20263;-91
2022/08/31 14:55:31;;;;;;;1.27;0.75;;;23.70;97.50;;;;;;10315953;28;20644;-92
2022/08/31 15:00:39;;;;;;;1.23;0.50;;;23.70;99.90;;;;;;10328712;28;20692;-89
2022/08/31 15:05:41;;;;;;;1.42;0.75;;;23.50;91.30;;;;;;10328912;28;20830;-92
2022/08/31 15:10:45;;;;;;;0.57;0.40;;;23.20;99.90;;;;;;10326573;28;20310;-91
2022/08/31 15:15:49;;;;;;;0.65;0.40;;;23.60;99.90;;;;;;10295719;28;20209;-91
2022/08/31 15:20:54;;;;;;;1.13;0.60;;;23.70;96.10;;;;;;10288181;28;20259;-90
2022/08/31 15:26:07;;;;;;;1.27;0.60;;;23.70;97.40;;;;;;10302535;28;20287;-91
2022/08/31 15:31:22;;;;;;;1.27;0.52;;;23.70;97.10;;;;;;10325445;28;20284;-88
2022/08/31 15:36:26;;;;;;;1.17;0.52;;;23.20;94.20;;;;;;10327152;28;20260;-88
2022/08/31 15:41:29;;;;;;;7.93;0.93;;;22.90;84.70;;;;;;10327910;28;20228;-86
2022/08/31 15:51:52;;;;;;;2.67;0.70;;;23.10;91.90;;;;;;10326417;28;20268;-86
2022/08/31 15:56:56;;;;;;;2.00;0.70;;;25.00;90.00;;;;;;10326161;28;20252;-86
2022/08/31 16:02:00;;;;;;;1.88;0.55;;;23.90;90.10;;;;;;10327299;28;20618;-86
2022/08/31 16:07:06;;;;;;;1.60;0.50;;;24.30;93.40;;;;;;10327935;28;20286;-86
2022/08/31 16:12:11;;;;;;;9.73;1.35;;;23.60;86.50;;;;;;10328969;28;20278;-86
2022/08/31 16:17:17;;;;;;;9.90;2.00;;;21.20;95.20;;;;;;10308955;28;20245;-88
2022/08/31 16:22:21;;;;;;;3.05;0.65;;;20.10;98.90;;;;;;10304294;28;20240;-88
2022/08/31 16:27:29;;;;;;;2.15;0.60;;;21.70;99.90;;;;;;9958226;28;10000461;-87
2022/08/31 16:32:32;;;;;;;0.52;0.30;;;20.60;99.90;;;;;;10323528;28;20271;-88
2022/08/31 16:37:34;;;;;;;2.53;0.50;;;21.70;96.70;;;;;;10324459;28;20279;-87
2022/08/31 16:42:37;;;;;;;3.78;0.43;;;22.10;93.40;;;;;;10322932;28;20291;-88
2022/08/31 16:47:39;;;;;;;2.47;0.93;;;20.50;99.90;;;;;;10327696;28;20627;-88
2022/08/31 16:52:43;;;;;;;2.20;0.65;;;20.20;98.60;;;;;;10329942;28;20261;-87
2022/08/31 16:57:46;;;;;;;3.13;0.88;;;20.20;99.90;;;;;;10330114;28;20229;-87
2022/08/31 17:02:48;;;;;;;2.50;0.75;;;20.70;99.90;;;;;;10332379;28;20282;-88
2022/08/31 17:07:51;;;;;;;3.50;0.60;;;20.50;99.90;;;;;;10332902;28;20625;-88
2022/08/31 17:12:55;;;;;;;3.72;0.80;;;21.00;99.90;;;;;;10340097;28;20244;-88
2022/08/31 17:17:57;;;;;;;0.90;0.57;;;20.40;99.90;;;;;;10329862;28;20221;-87
2022/08/31 17:22:59;;;;;;;2.17;1.20;;;20.10;99.90;;;;;;10330950;28;20287;-88
2022/08/31 17:28:05;;;;;;;4.75;1.13;;;21.40;99.90;;;;;;10332203;28;20675;-86
2022/08/31 17:33:11;;;;;;;1.48;0.80;;;19.30;99.90;;;;;;10330116;28;20248;-89
2022/08/31 17:38:14;;;;;;;1.83;0.80;;;19.70;99.90;;;;;;10333373;28;20259;-89
2022/08/31 17:43:20;;;;;;;2.40;0.73;;;22.90;98.90;;;;;;10331368;28;20205;-89
2022/08/31 17:48:26;;;;;;;3.28;0.80;;;24.00;95.90;;;;;;10332699;28;20291;-88
2022/08/31 17:53:33;;;;;;;1.27;0.65;;;24.60;94.20;;;;;;10331313;28;20283;-88
2022/08/31 17:58:35;;;;;;;1.27;0.57;;;24.90;93.30;;;;;;10331047;28;20294;-88
2022/08/31 18:03:38;;;;;;;5.13;0.68;;;25.00;92.90;;;;;;10330290;28;20267;-88
2022/08/31 18:08:40;;;;;;;0.93;0.55;;;25.20;92.70;;;;;;10314952;28;20237;-89
2022/08/31 18:13:43;;;;;;;5.72;1.75;;;25.20;92.70;;;;;;10328223;28;20257;-89
2022/08/31 18:18:48;;;;;;;0.98;0.60;;;25.20;90.00;;;;;;10330522;28;20930;-89
2022/08/31 18:23:52;;;;;;;3.90;0.90;;;25.10;90.30;;;;;;10328592;28;20283;-89
2022/08/31 18:28:55;;;;;;;1.13;0.60;;;25.10;90.70;;;;;;10310788;28;20291;-89
2022/08/31 18:34:04;;;;;;;2.70;0.77;;;25.00;90.90;;;;;;10326908;28;20283;-89
2022/08/31 18:39:14;;;;;;;2.50;1.00;;;25.10;91.20;;;;;;10326203;28;20676;-89
2022/08/31 18:49:58;;;;;;;4.53;0.95;;;25.00;92.00;;;;;;10324749;28;20327;-89
2022/08/31 18:55:01;;;;;;;1.65;0.60;;;25.00;92.40;;;;;;10320202;28;20256;-89
2022/08/31 19:00:05;;;;;;;2.28;0.82;;;25.00;92.70;;;;;;10326314;28;20232;-88
2022/08/31 19:05:13;;;;;;;1.55;0.88;;;24.90;93.10;;;;;;10320309;28;20240;-88
2022/08/31 19:10:16;;;;;;;4.20;0.70;;;24.90;93.40;;;;;;10309842;28;20335;-88
2022/08/31 19:15:18;;;;;;;0.98;0.77;;;24.90;93.70;;;;;;10325748;28;20225;-89
2022/08/31 19:20:22;;;;;;;1.27;0.85;;;24.80;94.00;;;;;;10310696;28;20236;-89
2022/08/31 19:25:25;;;;;;;3.25;0.90;;;24.80;94.20;;;;;;10325614;28;20237;-89
2022/08/31 19:30:29;;;;;;;0.60;0.60;;;24.80;94.50;;;;;;10326196;28;20245;-89
2022/08/31 19:35:32;;;;;;;2.53;0.70;;;24.70;94.70;;;;;;10321675;28;20232;-88
2022/08/31 19:40:38;;;;;;;1.38;0.85;;;24.80;94.90;;;;;;10324594;28;20212;-88
2022/08/31 19:45:40;;;;;;;0.98;0.60;;;24.80;95.00;;;;;;10324558;28;20283;-88
2022/08/31 19:50:46;;;;;;;1.65;0.82;;;24.70;95.20;;;;;;10318727;28;20261;-88
2022/08/31 19:55:51;;;;;;;1.83;0.50;;;24.70;95.70;;;;;;10323323;28;20260;-87
2022/08/31 20:00:53;;;;;;;1.30;1.00;;;24.60;95.70;;;;;;10319689;28;20243;-88
2022/08/31 20:06:11;;;;;;;1.13;0.77;;;24.60;95.90;;;;;;10338975;28;20229;-88
2022/08/31 20:11:16;;;;;;;1.20;0.77;;;24.60;96.10;;;;;;10325827;28;20256;-88
2022/08/31 20:16:23;;;;;;;2.38;0.70;;;24.60;96.30;;;;;;10324604;28;20291;-87
2022/08/31 20:21:39;;;;;;;2.30;1.05;;;24.50;96.50;;;;;;10327909;28;20248;-87
2022/08/31 20:26:42;;;;;;;1.88;0.90;;;24.50;96.60;;;;;;10320458;28;20700;-88
2022/08/31 20:31:53;;;;;;;2.22;0.90;;;24.50;96.80;;;;;;10315444;28;20249;-87
2022/08/31 20:36:57;;;;;;;1.33;0.60;;;24.40;96.90;;;;;;10312691;28;20213;-87
2022/08/31 20:42:04;;;;;;;1.45;0.80;;;24.50;97.00;;;;;;10332155;28;20229;-88
2022/08/31 20:52:33;;;;;;;1.00;0.80;;;24.40;97.20;;;;;;10323116;28;20244;-88
2022/08/31 20:57:39;;;;;;;2.47;0.65;;;24.40;97.40;;;;;;10334113;28;20228;-88
2022/08/31 21:02:42;;;;;;;1.08;0.80;;;24.40;97.60;;;;;;10329555;28;20319;-89
2022/08/31 21:07:45;;;;;;;1.30;0.65;;;24.40;97.60;;;;;;10333352;28;20204;-88
2022/08/31 21:12:49;;;;;;;1.15;0.75;;;24.30;97.60;;;;;;10329706;28;20264;-88
2022/08/31 21:17:58;;;;;;;1.17;0.70;;;24.30;97.70;;;;;;10312887;28;20261;-88
2022/08/31 21:23:00;;;;;;;1.27;0.75;;;24.30;97.80;;;;;;10317225;28;20268;-88
2022/08/31 21:28:05;;;;;;;2.08;0.80;;;24.30;97.90;;;;;;10319945;28;20240;-89
2022/08/31 21:33:08;;;;;;;0.95;0.80;;;24.20;98.00;;;;;;10319924;28;20650;-88
2022/08/31 21:38:11;;;;;;;2.22;1.15;;;24.20;98.10;;;;;;10291650;28;20244;-87
2022/08/31 21:43:14;;;;;;;1.63;0.95;;;24.20;98.20;;;;;;10329980;28;20275;-87
2022/08/31 21:48:17;;;;;;;1.17;0.68;;;24.20;98.30;;;;;;10330771;28;20289;-88
2022/08/31 21:53:27;;;;;;;1.00;0.80;;;24.20;98.30;;;;;;10331445;28;20701;-87
2022/08/31 21:58:30;;;;;;;1.10;0.80;;;24.10;98.40;;;;;;10331307;28;20640;-88
2022/08/31 22:03:39;;;;;;;1.35;1.13;;;24.10;98.50;;;;;;10333056;28;20563;-87
2022/08/31 22:08:41;;;;;;;1.70;0.88;;;24.10;98.80;;;;;;10329413;28;20241;-88
2022/08/31 22:13:46;;;;;;;1.48;0.80;;;23.60;99.90;;;;;;10331459;28;20260;-88
2022/08/31 22:18:55;;;;;;;1.88;0.80;;;23.90;99.20;;;;;;10332184;28;20259;-89
2022/08/31 22:24:06;;;;;;;1.77;1.13;;;23.90;99.10;;;;;;10330672;28;20248;-89
2022/08/31 22:29:12;;;;;;;2.30;1.15;;;23.90;99.00;;;;;;10331042;28;20229;-89
2022/08/31 22:34:19;;;;;;;1.65;0.90;;;23.90;99.00;;;;;;10330430;28;20228;-89
2022/08/31 22:39:28;;;;;;;2.45;1.20;;;23.90;99.00;;;;;;10330359;28;20236;-88
2022/08/31 22:44:33;;;;;;;1.20;1.00;;;23.90;99.10;;;;;;10313555;28;20275;-89
2022/08/31 22:49:35;;;;;;;2.83;1.27;;;23.80;99.10;;;;;;10313917;28;20209;-89
2022/08/31 22:54:38;;;;;;;1.58;1.08;;;23.80;99.10;;;;;;10331028;28;20264;-88
2022/08/31 22:59:41;;;;;;;1.70;0.95;;;23.80;99.10;;;;;;10329027;28;20291;-87
2022/08/31 23:04:44;;;;;;;1.40;0.90;;;23.80;99.10;;;;;;10328531;28;20714;-88
2022/08/31 23:09:46;;;;;;;1.30;1.00;;;23.70;99.20;;;;;;10328759;28;20236;-88
2022/08/31 23:14:49;;;;;;;1.17;1.00;;;23.70;99.20;;;;;;10330174;28;20685;-89
2022/08/31 23:19:53;;;;;;;3.85;1.08;;;23.70;99.30;;;;;;10327478;28;20193;-89
2022/08/31 23:24:58;;;;;;;1.60;1.13;;;23.70;99.30;;;;;;10328328;28;20678;-88
2022/08/31 23:30:01;;;;;;;1.10;0.77;;;23.70;99.30;;;;;;10329181;28;20240;-88
2022/08/31 23:35:04;;;;;;;2.50;0.98;;;23.70;99.30;;;;;;10328837;28;20659;-88
2022/08/31 23:40:07;;;;;;;1.17;1.00;;;23.70;99.30;;;;;;10328348;28;20263;-89
2022/08/31 23:45:11;;;;;;;4.32;1.08;;;23.60;99.30;;;;;;10328063;28;20229;-89
2022/08/31 23:50:14;;;;;;;1.63;0.93;;;23.60;99.30;;;;;;10327881;28;20201;-88
2022/08/31 23:55:17;;;;;;;1.35;0.88;;;23.60;99.30;;;;;;10326575;28;20303;-89
